sensor_id;sensor_type;location;lat;lon;timestamp;P1;durP1;ratioP1;P2;durP2;ratioP2
17006;SDS011;8620;51.168;4.154;2023-08-06T07:01:21;1.20;;;1.20;;
17006;SDS011;8620;51.168;4.154;2023-08-06T07:03:47;2.00;;;1.90;;
17006;SDS011;8620;51.168;4.154;2023-08-06T07:06:13;1.10;;;1.10;;
17006;SDS011;8620;51.168;4.154;2023-08-06T07:08:41;1.30;;;1.30;;
17006;SDS011;8620;51.168;4.154;2023-08-06T07:11:07;1.40;;;1.33;;
17006;SDS011;8620;51.168;4.154;2023-08-06T07:13:35;1.10;;;1.10;;
17006;SDS011;8620;51.168;4.154;2023-08-06T07:16:02;1.00;;;1.00;;
17006;SDS011;8620;51.168;4.154;2023-08-06T07:18:28;2.10;;;1.43;;
17006;SDS011;8620;51.168;4.154;2023-08-06T07:21:00;0.93;;;0.93;;
17006;SDS011;8620;51.168;4.154;2023-08-06T07:23:26;0.90;;;0.90;;
17006;SDS011;8620;51.168;4.154;2023-08-06T07:25:55;0.90;;;0.90;;
17006;SDS011;8620;51.168;4.154;2023-08-06T07:28:23;1.17;;;1.07;;
17006;SDS011;8620;51.168;4.154;2023-08-06T07:30:53;1.00;;;1.00;;
17006;SDS011;8620;51.168;4.154;2023-08-06T07:33:19;1.00;;;1.00;;
17006;SDS011;8620;51.168;4.154;2023-08-06T07:35:46;1.00;;;1.00;;
17006;SDS011;8620;51.168;4.154;2023-08-06T07:38:16;1.10;;;1.10;;
17006;SDS011;8620;51.168;4.154;2023-08-06T07:40:42;13.43;;;1.57;;
17006;SDS011;8620;51.168;4.154;2023-08-06T07:43:15;1.40;;;1.40;;
17006;SDS011;8620;51.168;4.154;2023-08-06T07:45:44;1.40;;;1.40;;
17006;SDS011;8620;51.168;4.154;2023-08-06T07:48:10;1.60;;;1.60;;
17006;SDS011;8620;51.168;4.154;2023-08-06T07:50:36;1.87;;;1.87;;
17006;SDS011;8620;51.168;4.154;2023-08-06T07:53:05;1.67;;;1.67;;
17006;SDS011;8620;51.168;4.154;2023-08-06T07:55:31;2.00;;;2.00;;
17006;SDS011;8620;51.168;4.154;2023-08-06T07:57:57;1.60;;;1.60;;
17006;SDS011;8620;51.168;4.154;2023-08-06T08:00:23;1.60;;;1.60;;
17006;SDS011;8620;51.168;4.154;2023-08-06T08:02:49;1.70;;;1.70;;
17006;SDS011;8620;51.168;4.154;2023-08-06T08:05:15;1.60;;;1.60;;
17006;SDS011;8620;51.168;4.154;2023-08-06T08:07:41;1.47;;;1.47;;
17006;SDS011;8620;51.168;4.154;2023-08-06T08:10:07;1.90;;;1.80;;
17006;SDS011;8620;51.168;4.154;2023-08-06T08:12:34;1.53;;;1.53;;
17006;SDS011;8620;51.168;4.154;2023-08-06T08:15:06;1.87;;;1.87;;
17006;SDS011;8620;51.168;4.154;2023-08-06T08:17:33;1.90;;;1.80;;
17006;SDS011;8620;51.168;4.154;2023-08-06T08:20:02;1.87;;;1.87;;
17006;SDS011;8620;51.168;4.154;2023-08-06T08:22:35;2.30;;;2.20;;
17006;SDS011;8620;51.168;4.154;2023-08-06T08:25:01;3.17;;;3.07;;
17006;SDS011;8620;51.168;4.154;2023-08-06T08:27:28;3.13;;;2.93;;
17006;SDS011;8620;51.168;4.154;2023-08-06T08:29:57;2.80;;;2.67;;
17006;SDS011;8620;51.168;4.154;2023-08-06T08:32:23;2.87;;;2.77;;
17006;SDS011;8620;51.168;4.154;2023-08-06T08:34:52;3.57;;;3.47;;
17006;SDS011;8620;51.168;4.154;2023-08-06T08:37:18;2.80;;;2.70;;
17006;SDS011;8620;51.168;4.154;2023-08-06T08:39:44;2.00;;;2.00;;
17006;SDS011;8620;51.168;4.154;2023-08-06T08:42:13;4.10;;;2.20;;
17006;SDS011;8620;51.168;4.154;2023-08-06T08:44:39;2.00;;;2.00;;
17006;SDS011;8620;51.168;4.154;2023-08-06T08:47:11;1.70;;;1.70;;
17006;SDS011;8620;51.168;4.154;2023-08-06T08:49:39;3.40;;;3.30;;
17006;SDS011;8620;51.168;4.154;2023-08-06T08:52:09;2.30;;;2.20;;
17006;SDS011;8620;51.168;4.154;2023-08-06T08:54:38;12.23;;;3.00;;
17006;SDS011;8620;51.168;4.154;2023-08-06T08:57:05;1.93;;;1.83;;
17006;SDS011;8620;51.168;4.154;2023-08-06T08:59:34;1.80;;;1.80;;
17006;SDS011;8620;51.168;4.154;2023-08-06T09:02:05;2.97;;;2.33;;
17006;SDS011;8620;51.168;4.154;2023-08-06T09:04:35;1.70;;;1.70;;
17006;SDS011;8620;51.168;4.154;2023-08-06T09:07:08;2.75;;;2.58;;
17006;SDS011;8620;51.168;4.154;2023-08-06T09:09:44;3.07;;;1.80;;
17006;SDS011;8620;51.168;4.154;2023-08-06T09:12:22;1.70;;;1.70;;
17006;SDS011;8620;51.168;4.154;2023-08-06T09:14:48;2.37;;;2.37;;
17006;SDS011;8620;51.168;4.154;2023-08-06T09:17:17;2.90;;;2.80;;
17006;SDS011;8620;51.168;4.154;2023-08-06T09:20:08;3.50;;;3.40;;
17006;SDS011;8620;51.168;4.154;2023-08-06T09:22:39;3.50;;;3.40;;
17006;SDS011;8620;51.168;4.154;2023-08-06T09:25:12;9.43;;;6.00;;
17006;SDS011;8620;51.168;4.154;2023-08-06T09:27:53;4.00;;;3.90;;
17006;SDS011;8620;51.168;4.154;2023-08-06T09:30:29;3.50;;;3.40;;
17006;SDS011;8620;51.168;4.154;2023-08-06T09:33:01;3.40;;;3.23;;
17006;SDS011;8620;51.168;4.154;2023-08-06T09:35:35;2.30;;;2.30;;
17006;SDS011;8620;51.168;4.154;2023-08-06T09:38:07;2.60;;;2.50;;
17006;SDS011;8620;51.168;4.154;2023-08-06T09:40:35;3.70;;;3.60;;
17006;SDS011;8620;51.168;4.154;2023-08-06T09:45:59;3.70;;;3.60;;
17006;SDS011;8620;51.168;4.154;2023-08-06T09:51:49;4.13;;;4.03;;
17006;SDS011;8620;51.168;4.154;2023-08-06T09:54:42;3.10;;;3.00;;
17006;SDS011;8620;51.168;4.154;2023-08-06T09:57:23;3.20;;;3.10;;
17006;SDS011;8620;51.168;4.154;2023-08-06T09:59:51;3.67;;;3.53;;
17006;SDS011;8620;51.168;4.154;2023-08-06T10:02:26;4.00;;;3.90;;
17006;SDS011;8620;51.168;4.154;2023-08-06T10:05:01;4.10;;;3.90;;
17006;SDS011;8620;51.168;4.154;2023-08-06T10:07:39;3.70;;;3.60;;
17006;SDS011;8620;51.168;4.154;2023-08-06T10:13:21;3.07;;;2.97;;
17006;SDS011;8620;51.168;4.154;2023-08-06T10:15:50;3.47;;;3.37;;
17006;SDS011;8620;51.168;4.154;2023-08-06T10:33:39;1.13;;;1.13;;
17006;SDS011;8620;51.168;4.154;2023-08-06T10:36:14;20.23;;;3.30;;
17006;SDS011;8620;51.168;4.154;2023-08-06T10:38:46;2.60;;;2.50;;
17006;SDS011;8620;51.168;4.154;2023-08-06T10:41:28;2.87;;;2.77;;
17006;SDS011;8620;51.168;4.154;2023-08-06T10:44:07;3.10;;;2.90;;
17006;SDS011;8620;51.168;4.154;2023-08-06T10:46:38;3.40;;;3.30;;
17006;SDS011;8620;51.168;4.154;2023-08-06T10:49:15;3.20;;;3.10;;
17006;SDS011;8620;51.168;4.154;2023-08-06T10:51:52;3.30;;;3.20;;
17006;SDS011;8620;51.168;4.154;2023-08-06T10:57:26;4.17;;;3.90;;
17006;SDS011;8620;51.168;4.154;2023-08-06T11:00:37;5.43;;;5.33;;
17006;SDS011;8620;51.168;4.154;2023-08-06T11:03:04;5.37;;;5.27;;
17006;SDS011;8620;51.168;4.154;2023-08-06T11:05:36;4.40;;;4.30;;
17006;SDS011;8620;51.168;4.154;2023-08-06T11:08:29;5.67;;;5.47;;
17006;SDS011;8620;51.168;4.154;2023-08-06T11:11:15;4.13;;;4.03;;
17006;SDS011;8620;51.168;4.154;2023-08-06T11:14:14;4.07;;;3.97;;
17006;SDS011;8620;51.168;4.154;2023-08-06T11:17:04;4.00;;;3.90;;
17006;SDS011;8620;51.168;4.154;2023-08-06T11:19:35;3.60;;;3.30;;
17006;SDS011;8620;51.168;4.154;2023-08-06T11:22:03;3.00;;;2.90;;
17006;SDS011;8620;51.168;4.154;2023-08-06T11:24:48;3.70;;;3.50;;
17006;SDS011;8620;51.168;4.154;2023-08-06T11:27:35;2.70;;;2.60;;
17006;SDS011;8620;51.168;4.154;2023-08-06T11:30:18;2.80;;;2.70;;
17006;SDS011;8620;51.168;4.154;2023-08-06T11:33:14;3.13;;;3.03;;
17006;SDS011;8620;51.168;4.154;2023-08-06T11:36:00;4.23;;;3.30;;
17006;SDS011;8620;51.168;4.154;2023-08-06T11:38:29;4.17;;;4.07;;
17006;SDS011;8620;51.168;4.154;2023-08-06T11:40:58;4.43;;;4.23;;
17006;SDS011;8620;51.168;4.154;2023-08-06T11:46:47;4.10;;;3.80;;
17006;SDS011;8620;51.168;4.154;2023-08-06T11:50:06;4.90;;;4.73;;
17006;SDS011;8620;51.168;4.154;2023-08-06T11:52:38;4.40;;;4.30;;
17006;SDS011;8620;51.168;4.154;2023-08-06T11:55:24;4.30;;;4.00;;
17006;SDS011;8620;51.168;4.154;2023-08-06T11:57:57;4.10;;;4.00;;
17006;SDS011;8620;51.168;4.154;2023-08-06T12:00:44;4.80;;;4.70;;
17006;SDS011;8620;51.168;4.154;2023-08-06T12:03:30;5.20;;;5.10;;
17006;SDS011;8620;51.168;4.154;2023-08-06T12:05:56;4.80;;;4.60;;
17006;SDS011;8620;51.168;4.154;2023-08-06T12:08:28;5.43;;;5.20;;
17006;SDS011;8620;51.168;4.154;2023-08-06T12:11:07;6.00;;;4.70;;
17006;SDS011;8620;51.168;4.154;2023-08-06T12:13:34;4.93;;;4.83;;
17006;SDS011;8620;51.168;4.154;2023-08-06T12:16:13;5.43;;;5.23;;
17006;SDS011;8620;51.168;4.154;2023-08-06T12:19:04;6.00;;;5.80;;
17006;SDS011;8620;51.168;4.154;2023-08-06T12:21:30;6.70;;;6.40;;
17006;SDS011;8620;51.168;4.154;2023-08-06T12:24:24;8.17;;;7.47;;
17006;SDS011;8620;51.168;4.154;2023-08-06T12:27:11;7.90;;;7.60;;
17006;SDS011;8620;51.168;4.154;2023-08-06T12:29:48;7.73;;;7.53;;
17006;SDS011;8620;51.168;4.154;2023-08-06T12:32:26;8.30;;;8.00;;
17006;SDS011;8620;51.168;4.154;2023-08-06T12:35:00;7.43;;;7.13;;
17006;SDS011;8620;51.168;4.154;2023-08-06T12:37:56;7.97;;;7.67;;
17006;SDS011;8620;51.168;4.154;2023-08-06T12:40:26;7.43;;;7.20;;
17006;SDS011;8620;51.168;4.154;2023-08-06T12:42:54;7.40;;;7.10;;
17006;SDS011;8620;51.168;4.154;2023-08-06T12:45:42;9.17;;;8.87;;
17006;SDS011;8620;51.168;4.154;2023-08-06T12:48:10;9.27;;;8.50;;
17006;SDS011;8620;51.168;4.154;2023-08-06T12:51:10;9.30;;;8.90;;
17006;SDS011;8620;51.168;4.154;2023-08-06T12:53:48;7.30;;;7.10;;
17006;SDS011;8620;51.168;4.154;2023-08-06T12:56:23;6.67;;;6.47;;
17006;SDS011;8620;51.168;4.154;2023-08-06T12:58:57;7.20;;;7.00;;
17006;SDS011;8620;51.168;4.154;2023-08-06T13:07:47;3.63;;;3.53;;
17006;SDS011;8620;51.168;4.154;2023-08-06T13:10:34;3.77;;;3.67;;
17006;SDS011;8620;51.168;4.154;2023-08-06T13:13:08;3.43;;;3.33;;
17006;SDS011;8620;51.168;4.154;2023-08-06T13:27:15;3.83;;;3.60;;
17006;SDS011;8620;51.168;4.154;2023-08-06T13:29:53;5.27;;;4.97;;
17006;SDS011;8620;51.168;4.154;2023-08-06T13:32:22;2.20;;;2.20;;
17006;SDS011;8620;51.168;4.154;2023-08-06T13:37:58;2.40;;;2.30;;
17006;SDS011;8620;51.168;4.154;2023-08-06T13:40:32;2.33;;;2.27;;
17006;SDS011;8620;51.168;4.154;2023-08-06T13:43:04;1.80;;;1.80;;
17006;SDS011;8620;51.168;4.154;2023-08-06T13:45:36;1.57;;;1.57;;
17006;SDS011;8620;51.168;4.154;2023-08-06T13:48:24;1.30;;;1.30;;
17006;SDS011;8620;51.168;4.154;2023-08-06T13:51:10;1.57;;;1.57;;
17006;SDS011;8620;51.168;4.154;2023-08-06T13:53:57;1.50;;;1.50;;
17006;SDS011;8620;51.168;4.154;2023-08-06T13:56:28;2.50;;;2.40;;
17006;SDS011;8620;51.168;4.154;2023-08-06T13:59:19;1.90;;;1.90;;
17006;SDS011;8620;51.168;4.154;2023-08-06T14:01:45;5.13;;;2.37;;
17006;SDS011;8620;51.168;4.154;2023-08-06T14:04:40;2.00;;;2.00;;
17006;SDS011;8620;51.168;4.154;2023-08-06T14:07:10;2.37;;;2.30;;
17006;SDS011;8620;51.168;4.154;2023-08-06T14:09:51;3.00;;;2.80;;
17006;SDS011;8620;51.168;4.154;2023-08-06T14:12:28;1.70;;;1.70;;
17006;SDS011;8620;51.168;4.154;2023-08-06T14:15:05;1.30;;;1.30;;
17006;SDS011;8620;51.168;4.154;2023-08-06T14:17:35;1.40;;;1.40;;
17006;SDS011;8620;51.168;4.154;2023-08-06T14:20:26;1.10;;;1.10;;
17006;SDS011;8620;51.168;4.154;2023-08-06T14:22:51;1.10;;;1.10;;
17006;SDS011;8620;51.168;4.154;2023-08-06T14:25:28;1.53;;;1.53;;
17006;SDS011;8620;51.168;4.154;2023-08-06T14:28:02;1.40;;;1.40;;
17006;SDS011;8620;51.168;4.154;2023-08-06T14:30:52;1.40;;;1.40;;
17006;SDS011;8620;51.168;4.154;2023-08-06T14:33:26;1.40;;;1.40;;
17006;SDS011;8620;51.168;4.154;2023-08-06T14:36:18;1.33;;;1.33;;
17006;SDS011;8620;51.168;4.154;2023-08-06T14:38:47;1.33;;;1.33;;
17006;SDS011;8620;51.168;4.154;2023-08-06T14:44:13;1.47;;;1.47;;
17006;SDS011;8620;51.168;4.154;2023-08-06T14:47:00;2.03;;;1.93;;
17006;SDS011;8620;51.168;4.154;2023-08-06T14:49:47;1.63;;;1.50;;
17006;SDS011;8620;51.168;4.154;2023-08-06T14:55:31;1.57;;;1.57;;
17006;SDS011;8620;51.168;4.154;2023-08-06T15:00:56;2.17;;;2.17;;
17006;SDS011;8620;51.168;4.154;2023-08-06T15:03:45;2.83;;;2.73;;
17006;SDS011;8620;51.168;4.154;2023-08-06T15:06:16;2.90;;;2.80;;
17006;SDS011;8620;51.168;4.154;2023-08-06T15:08:43;2.90;;;2.80;;
17006;SDS011;8620;51.168;4.154;2023-08-06T15:11:23;3.87;;;3.50;;
17006;SDS011;8620;51.168;4.154;2023-08-06T15:14:02;3.20;;;3.10;;
17006;SDS011;8620;51.168;4.154;2023-08-06T15:16:53;3.30;;;3.20;;
17006;SDS011;8620;51.168;4.154;2023-08-06T15:19:37;3.87;;;3.70;;
17006;SDS011;8620;51.168;4.154;2023-08-06T15:22:25;3.57;;;3.47;;
17006;SDS011;8620;51.168;4.154;2023-08-06T15:25:09;3.20;;;3.10;;
17006;SDS011;8620;51.168;4.154;2023-08-06T15:30:48;3.13;;;3.03;;
17006;SDS011;8620;51.168;4.154;2023-08-06T15:33:20;3.40;;;3.30;;
17006;SDS011;8620;51.168;4.154;2023-08-06T15:35:52;3.27;;;3.17;;
17006;SDS011;8620;51.168;4.154;2023-08-06T15:38:25;2.97;;;2.87;;
17006;SDS011;8620;51.168;4.154;2023-08-06T15:41:03;3.30;;;3.20;;
17006;SDS011;8620;51.168;4.154;2023-08-06T15:43:29;3.17;;;3.07;;
17006;SDS011;8620;51.168;4.154;2023-08-06T15:46:04;3.50;;;3.40;;
17006;SDS011;8620;51.168;4.154;2023-08-06T15:48:51;3.00;;;2.90;;
17006;SDS011;8620;51.168;4.154;2023-08-06T15:51:20;2.50;;;2.40;;
17006;SDS011;8620;51.168;4.154;2023-08-06T15:54:03;2.03;;;2.03;;
17006;SDS011;8620;51.168;4.154;2023-08-06T15:57:08;2.00;;;2.00;;
17006;SDS011;8620;51.168;4.154;2023-08-06T16:02:20;2.23;;;2.03;;
17006;SDS011;8620;51.168;4.154;2023-08-06T16:05:04;1.27;;;1.27;;
17006;SDS011;8620;51.168;4.154;2023-08-06T16:07:39;1.27;;;1.27;;
17006;SDS011;8620;51.168;4.154;2023-08-06T16:10:29;1.10;;;1.10;;
17006;SDS011;8620;51.168;4.154;2023-08-06T16:13:17;1.23;;;1.23;;
17006;SDS011;8620;51.168;4.154;2023-08-06T16:15:51;1.57;;;1.47;;
17006;SDS011;8620;51.168;4.154;2023-08-06T16:18:38;1.10;;;1.10;;
17006;SDS011;8620;51.168;4.154;2023-08-06T16:21:15;17.50;;;2.77;;
17006;SDS011;8620;51.168;4.154;2023-08-06T16:23:41;3.40;;;1.17;;
17006;SDS011;8620;51.168;4.154;2023-08-06T16:32:21;0.80;;;0.80;;
17006;SDS011;8620;51.168;4.154;2023-08-06T16:35:08;2.73;;;1.33;;
17006;SDS011;8620;51.168;4.154;2023-08-06T16:37:51;0.90;;;0.90;;
17006;SDS011;8620;51.168;4.154;2023-08-06T16:40:28;0.87;;;0.87;;
17006;SDS011;8620;51.168;4.154;2023-08-06T16:42:54;0.80;;;0.80;;
17006;SDS011;8620;51.168;4.154;2023-08-06T16:51:02;1.07;;;1.07;;
17006;SDS011;8620;51.168;4.154;2023-08-06T16:53:45;0.50;;;0.50;;
17006;SDS011;8620;51.168;4.154;2023-08-06T16:56:11;0.77;;;0.77;;
17006;SDS011;8620;51.168;4.154;2023-08-06T16:58:46;0.60;;;0.60;;
17006;SDS011;8620;51.168;4.154;2023-08-06T17:04:12;6.27;;;1.83;;
17006;SDS011;8620;51.168;4.154;2023-08-06T17:06:41;0.63;;;0.63;;
17006;SDS011;8620;51.168;4.154;2023-08-06T17:09:13;0.67;;;0.67;;
17006;SDS011;8620;51.168;4.154;2023-08-06T17:11:44;0.60;;;0.60;;
17006;SDS011;8620;51.168;4.154;2023-08-06T17:14:16;0.47;;;0.47;;
17006;SDS011;8620;51.168;4.154;2023-08-06T17:19:36;3.40;;;0.93;;
17006;SDS011;8620;51.168;4.154;2023-08-06T17:22:16;0.43;;;0.43;;
17006;SDS011;8620;51.168;4.154;2023-08-06T17:24:53;0.30;;;0.30;;
17006;SDS011;8620;51.168;4.154;2023-08-06T17:27:43;0.40;;;0.40;;
17006;SDS011;8620;51.168;4.154;2023-08-06T17:30:11;0.70;;;0.50;;
17006;SDS011;8620;51.168;4.154;2023-08-06T17:32:48;0.40;;;0.40;;
17006;SDS011;8620;51.168;4.154;2023-08-06T17:35:15;0.63;;;0.63;;
17006;SDS011;8620;51.168;4.154;2023-08-06T17:37:44;0.30;;;0.30;;
17006;SDS011;8620;51.168;4.154;2023-08-06T17:40:10;3.93;;;1.23;;
17006;SDS011;8620;51.168;4.154;2023-08-06T17:42:51;0.30;;;0.30;;
17006;SDS011;8620;51.168;4.154;2023-08-06T17:45:41;0.30;;;0.30;;
17006;SDS011;8620;51.168;4.154;2023-08-06T17:48:28;0.30;;;0.30;;
17006;SDS011;8620;51.168;4.154;2023-08-06T17:51:01;0.30;;;0.30;;
17006;SDS011;8620;51.168;4.154;2023-08-06T17:53:38;0.20;;;0.20;;
17006;SDS011;8620;51.168;4.154;2023-08-06T17:56:09;1.20;;;0.83;;
17006;SDS011;8620;51.168;4.154;2023-08-06T17:58:34;0.30;;;0.30;;
17006;SDS011;8620;51.168;4.154;2023-08-06T18:01:04;0.60;;;0.60;;
17006;SDS011;8620;51.168;4.154;2023-08-06T18:03:39;0.37;;;0.37;;
17006;SDS011;8620;51.168;4.154;2023-08-06T18:06:13;1.30;;;1.30;;
17006;SDS011;8620;51.168;4.154;2023-08-06T18:08:48;0.57;;;0.57;;
17006;SDS011;8620;51.168;4.154;2023-08-06T18:11:24;0.20;;;0.20;;
17006;SDS011;8620;51.168;4.154;2023-08-06T18:13:53;0.40;;;0.40;;
17006;SDS011;8620;51.168;4.154;2023-08-06T18:16:24;0.60;;;0.60;;
17006;SDS011;8620;51.168;4.154;2023-08-06T18:19:11;0.10;;;0.10;;
17006;SDS011;8620;51.168;4.154;2023-08-06T18:22:01;0.50;;;0.30;;
17006;SDS011;8620;51.168;4.154;2023-08-06T18:24:47;0.20;;;0.20;;
17006;SDS011;8620;51.168;4.154;2023-08-06T18:27:23;0.20;;;0.20;;
17006;SDS011;8620;51.168;4.154;2023-08-06T18:29:52;0.10;;;0.10;;
17006;SDS011;8620;51.168;4.154;2023-08-06T18:32:45;0.10;;;0.10;;
17006;SDS011;8620;51.168;4.154;2023-08-06T18:35:28;1.30;;;0.80;;
17006;SDS011;8620;51.168;4.154;2023-08-06T18:37:57;0.63;;;0.43;;
17006;SDS011;8620;51.168;4.154;2023-08-06T18:40:47;0.20;;;0.20;;
17006;SDS011;8620;51.168;4.154;2023-08-06T18:46:00;0.20;;;0.20;;
17006;SDS011;8620;51.168;4.154;2023-08-06T18:51:16;1.50;;;0.50;;
17006;SDS011;8620;51.168;4.154;2023-08-06T18:53:59;0.40;;;0.40;;
17006;SDS011;8620;51.168;4.154;2023-08-06T18:56:40;0.20;;;0.20;;
17006;SDS011;8620;51.168;4.154;2023-08-06T18:59:06;0.20;;;0.20;;
17006;SDS011;8620;51.168;4.154;2023-08-06T19:01:38;1.67;;;0.57;;
17006;SDS011;8620;51.168;4.154;2023-08-06T19:04:06;0.20;;;0.20;;
17006;SDS011;8620;51.168;4.154;2023-08-06T19:06:38;0.50;;;0.50;;
17006;SDS011;8620;51.168;4.154;2023-08-06T19:09:04;0.20;;;0.20;;
17006;SDS011;8620;51.168;4.154;2023-08-06T19:12:00;0.20;;;0.20;;
17006;SDS011;8620;51.168;4.154;2023-08-06T19:14:49;0.37;;;0.37;;
17006;SDS011;8620;51.168;4.154;2023-08-06T19:17:14;0.20;;;0.20;;
17006;SDS011;8620;51.168;4.154;2023-08-06T19:20:24;0.40;;;0.40;;
17006;SDS011;8620;51.168;4.154;2023-08-06T19:23:10;0.20;;;0.20;;
17006;SDS011;8620;51.168;4.154;2023-08-06T19:25:45;0.20;;;0.20;;
17006;SDS011;8620;51.168;4.154;2023-08-06T19:28:17;0.20;;;0.20;;
17006;SDS011;8620;51.168;4.154;2023-08-06T19:30:48;0.20;;;0.20;;
17006;SDS011;8620;51.168;4.154;2023-08-06T19:33:24;0.23;;;0.23;;
17006;SDS011;8620;51.168;4.154;2023-08-06T19:36:34;0.20;;;0.20;;
17006;SDS011;8620;51.168;4.154;2023-08-06T19:38:59;0.20;;;0.20;;
17006;SDS011;8620;51.168;4.154;2023-08-06T19:41:32;0.20;;;0.20;;
17006;SDS011;8620;51.168;4.154;2023-08-06T19:44:10;1.43;;;0.30;;
17006;SDS011;8620;51.168;4.154;2023-08-06T19:46:45;0.20;;;0.20;;
17006;SDS011;8620;51.168;4.154;2023-08-06T19:49:23;0.67;;;0.67;;
17006;SDS011;8620;51.168;4.154;2023-08-06T19:51:55;0.20;;;0.20;;
17006;SDS011;8620;51.168;4.154;2023-08-06T19:54:32;0.20;;;0.20;;
17006;SDS011;8620;51.168;4.154;2023-08-06T19:56:58;2.10;;;0.97;;
17006;SDS011;8620;51.168;4.154;2023-08-06T19:59:24;0.43;;;0.43;;
17006;SDS011;8620;51.168;4.154;2023-08-06T20:02:07;0.27;;;0.27;;
17006;SDS011;8620;51.168;4.154;2023-08-06T20:04:46;0.20;;;0.20;;
17006;SDS011;8620;51.168;4.154;2023-08-06T20:07:13;0.20;;;0.20;;
17006;SDS011;8620;51.168;4.154;2023-08-06T20:15:23;0.20;;;0.20;;
17006;SDS011;8620;51.168;4.154;2023-08-06T20:18:12;0.20;;;0.20;;
17006;SDS011;8620;51.168;4.154;2023-08-06T20:26:30;0.20;;;0.20;;
17006;SDS011;8620;51.168;4.154;2023-08-06T20:29:01;0.20;;;0.20;;
17006;SDS011;8620;51.168;4.154;2023-08-06T20:31:36;0.20;;;0.20;;
17006;SDS011;8620;51.168;4.154;2023-08-06T20:34:26;0.20;;;0.20;;
17006;SDS011;8620;51.168;4.154;2023-08-06T20:36:54;0.20;;;0.20;;
17006;SDS011;8620;51.168;4.154;2023-08-06T20:42:30;0.30;;;0.30;;
17006;SDS011;8620;51.168;4.154;2023-08-06T20:48:08;0.20;;;0.20;;
17006;SDS011;8620;51.168;4.154;2023-08-06T20:50:42;0.20;;;0.20;;
17006;SDS011;8620;51.168;4.154;2023-08-06T20:56:08;0.20;;;0.20;;
17006;SDS011;8620;51.168;4.154;2023-08-06T20:58:41;0.30;;;0.30;;
